Time,TemperatureF,DewpointF,PressureIn,WindDirection,WindDirectionDegrees,WindSpeedMPH,WindSpeedGustMPH,Humidity,HourlyPrecipIn,Conditions,Clouds,dailyrainin,SoftwareType,DateUTC
2013-05-14 11:00:00,90.0,60.8,29.93,SE,135,4.3,4.3,38,0.00,,,0.00,WUHU216HW,2013-05-14 16:00:00,
2013-05-14 11:05:00,90.4,60.4,29.93,SSE,158,3.6,6.0,37,0.00,,,0.00,WUHU216HW,2013-05-14 16:05:00,
2013-05-14 11:10:00,90.7,61.5,29.93,SW,225,1.3,6.0,38,0.00,,,0.00,WUHU216HW,2013-05-14 16:10:00,
2013-05-14 11:15:00,90.9,60.0,29.93,SW,225,5.4,6.0,36,0.00,,,0.00,WUHU216HW,2013-05-14 16:15:00,
2013-05-14 11:20:00,90.9,60.0,29.93,SW,225,3.4,8.7,36,0.00,,,0.00,WUHU216HW,2013-05-14 16:20:00,
2013-05-14 11:25:00,91.3,60.4,29.93,WSW,248,4.9,8.7,36,0.00,,,0.00,WUHU216HW,2013-05-14 16:25:00,
2013-05-14 11:30:00,91.8,60.8,29.93,SSW,203,6.5,8.5,36,0.00,,,0.00,WUHU216HW,2013-05-14 16:30:00,
2013-05-14 11:35:00,92.2,60.4,29.93,WSW,248,3.4,7.6,35,0.00,,,0.00,WUHU216HW,2013-05-14 16:35:00,
2013-05-14 11:40:00,92.3,60.5,29.93,West,270,7.2,7.6,35,0.00,,,0.00,WUHU216HW,2013-05-14 16:40:00,
2013-05-14 11:45:00,92.7,60.9,29.93,SSE,158,4.0,7.6,35,0.00,,,0.00,WUHU216HW,2013-05-14 16:45:00,
2013-05-14 11:50:00,92.9,61.0,29.93,WSW,248,5.4,7.6,35,0.00,,,0.00,WUHU216HW,2013-05-14 16:50:00,
2013-05-14 11:55:00,93.1,61.1,29.93,WSW,248,7.2,7.6,35,0.00,,,0.00,WUHU216HW,2013-05-14 16:55:00,
2013-05-14 12:00:00,93.4,61.5,29.93,WSW,248,3.4,7.6,35,0.00,,,0.00,WUHU216HW,2013-05-14 17:00:00,
2013-05-14 12:05:00,93.8,60.9,29.93,South,180,2.5,7.2,34,0.00,,,0.00,WUHU216HW,2013-05-14 17:05:00,
2013-05-14 12:10:00,93.8,61.7,29.93,SW,225,4.3,6.5,35,0.00,,,0.00,WUHU216HW,2013-05-14 17:10:00,
2013-05-14 12:15:00,94.1,62.1,29.93,East,90,2.0,6.5,35,0.00,,,0.00,WUHU216HW,2013-05-14 17:15:00,
2013-05-14 12:20:00,93.8,59.3,29.93,SSW,203,4.0,6.9,32,0.00,,,0.00,WUHU216HW,2013-05-14 17:20:00,
2013-05-14 12:25:00,93.2,59.7,29.93,SW,225,2.5,6.9,33,0.00,,,0.00,WUHU216HW,2013-05-14 17:25:00,
2013-05-14 12:30:00,93.4,59.9,29.92,South,180,2.7,5.4,33,0.00,,,0.00,WUHU216HW,2013-05-14 17:30:00,
2013-05-14 12:35:00,93.6,60.0,29.92,SSW,203,3.4,7.2,33,0.00,,,0.00,WUHU216HW,2013-05-14 17:35:00,
2013-05-14 12:40:00,94.0,60.3,29.92,SSW,203,4.5,7.2,33,0.00,,,0.00,WUHU216HW,2013-05-14 17:40:00,
2013-05-14 12:45:00,94.1,60.5,29.92,South,180,3.6,7.6,33,0.00,,,0.00,WUHU216HW,2013-05-14 17:45:00,
2013-05-14 12:50:00,94.3,60.7,29.91,South,180,2.5,7.6,33,0.00,,,0.00,WUHU216HW,2013-05-14 17:50:00,
2013-05-14 12:55:00,94.3,59.9,29.91,WSW,248,4.3,6.9,32,0.00,,,0.00,WUHU216HW,2013-05-14 17:55:00,
2013-05-14 13:00:00,94.5,60.9,29.91,SW,225,2.7,9.2,33,0.00,,,0.00,WUHU216HW,2013-05-14 18:00:00,
2013-05-14 13:05:00,94.3,60.7,29.91,South,180,8.5,9.2,33,0.00,,,0.00,WUHU216HW,2013-05-14 18:05:00,
2013-05-14 13:10:00,94.1,60.5,29.91,South,180,2.5,8.5,33,0.00,,,0.00,WUHU216HW,2013-05-14 18:10:00,
2013-05-14 13:15:00,94.1,59.7,29.91,WSW,248,4.9,8.5,32,0.00,,,0.00,WUHU216HW,2013-05-14 18:15:00,
2013-05-14 13:20:00,94.3,59.1,29.91,WSW,248,6.9,9.4,31,0.00,,,0.00,WUHU216HW,2013-05-14 18:20:00,
2013-05-14 13:25:00,94.5,60.0,29.90,SW,225,2.7,9.4,32,0.00,,,0.00,WUHU216HW,2013-05-14 18:25:00,
2013-05-14 13:30:00,94.7,59.3,29.90,SE,135,5.1,8.9,31,0.00,,,0.00,WUHU216HW,2013-05-14 18:30:00,
2013-05-14 13:35:00,94.5,58.4,29.90,WSW,248,2.5,8.9,30,0.00,,,0.00,WUHU216HW,2013-05-14 18:35:00,
2013-05-14 13:40:00,94.5,59.2,29.90,WSW,248,3.4,8.1,31,0.00,,,0.00,WUHU216HW,2013-05-14 18:40:00,
2013-05-14 13:45:00,94.7,58.5,29.89,NE,45,4.3,6.9,30,0.00,,,0.00,WUHU216HW,2013-05-14 18:45:00,
2013-05-14 13:50:00,94.7,57.4,29.89,SSW,203,4.7,11.4,29,0.00,,,0.00,WUHU216HW,2013-05-14 18:50:00,
2013-05-14 13:55:00,94.9,58.7,29.89,WSW,248,5.1,11.4,30,0.00,,,0.00,WUHU216HW,2013-05-14 18:55:00,
2013-05-14 14:00:00,95.2,59.1,29.89,SW,225,1.8,6.9,30,0.00,,,0.00,WUHU216HW,2013-05-14 19:00:00,
2013-05-14 14:05:00,95.0,57.8,29.89,SSW,203,5.4,10.5,29,0.00,,,0.00,WUHU216HW,2013-05-14 19:05:00,
2013-05-14 14:10:00,95.0,57.8,29.89,SSW,203,4.7,10.5,29,0.00,,,0.00,WUHU216HW,2013-05-14 19:10:00,
2013-05-14 14:15:00,95.2,57.9,29.88,WNW,293,2.7,9.2,29,0.00,,,0.00,WUHU216HW,2013-05-14 19:15:00,
2013-05-14 14:20:00,95.2,57.9,29.88,SSW,203,3.1,6.5,29,0.00,,,0.00,WUHU216HW,2013-05-14 19:20:00,
2013-05-14 14:25:00,95.0,57.8,29.88,WSW,248,4.7,9.8,29,0.00,,,0.00,WUHU216HW,2013-05-14 19:25:00,
2013-05-14 14:30:00,94.9,57.6,29.88,WSW,248,1.8,9.8,29,0.00,,,0.00,WUHU216HW,2013-05-14 19:30:00,
2013-05-14 14:35:00,95.0,57.8,29.88,SW,225,2.2,8.9,29,0.00,,,0.00,WUHU216HW,2013-05-14 19:35:00,
2013-05-14 14:40:00,94.9,57.6,29.88,South,180,4.7,6.5,29,0.00,,,0.00,WUHU216HW,2013-05-14 19:40:00,
2013-05-14 14:45:00,94.7,55.2,29.88,East,90,8.5,8.5,27,0.00,,,0.00,WUHU216HW,2013-05-14 19:45:00,
2013-05-14 14:50:00,94.5,57.2,29.88,WSW,248,8.5,8.5,29,0.00,,,0.00,WUHU216HW,2013-05-14 19:50:00,
2013-05-14 14:55:00,94.7,55.2,29.87,West,270,4.7,8.7,27,0.00,,,0.00,WUHU216HW,2013-05-14 19:55:00,
2013-05-14 15:00:00,94.7,57.4,29.87,SW,225,6.3,13.4,29,0.00,,,0.00,WUHU216HW,2013-05-14 20:00:00,
2013-05-14 15:05:00,94.7,57.4,29.87,South,180,5.6,13.4,29,0.00,,,0.00,WUHU216HW,2013-05-14 20:05:00,
2013-05-14 15:10:00,94.5,55.1,29.87,SSE,158,4.0,9.8,27,0.00,,,0.00,WUHU216HW,2013-05-14 20:10:00,
2013-05-14 15:15:00,94.3,57.1,29.87,South,180,4.5,9.8,29,0.00,,,0.00,WUHU216HW,2013-05-14 20:15:00,
2013-05-14 15:20:00,94.3,58.2,29.87,South,180,7.6,9.8,30,0.00,,,0.00,WUHU216HW,2013-05-14 20:20:00,
2013-05-14 15:25:00,94.0,58.7,29.87,SSE,158,5.8,13.4,31,0.00,,,0.00,WUHU216HW,2013-05-14 20:25:00,
2013-05-14 15:30:00,93.4,58.2,29.87,South,180,6.0,13.4,31,0.00,,,0.00,WUHU216HW,2013-05-14 20:30:00,
2013-05-14 15:35:00,93.1,58.7,29.86,SE,135,3.1,10.5,32,0.00,,,0.00,WUHU216HW,2013-05-14 20:35:00,
2013-05-14 15:40:00,92.5,57.5,29.86,South,180,10.5,10.5,31,0.00,,,0.00,WUHU216HW,2013-05-14 20:40:00,
2013-05-14 15:45:00,92.5,58.2,29.86,SSE,158,4.9,10.5,32,0.00,,,0.00,WUHU216HW,2013-05-14 20:45:00,
2013-05-14 15:50:00,92.5,57.5,29.86,SSE,158,10.1,11.4,31,0.00,,,0.00,WUHU216HW,2013-05-14 20:50:00,
2013-05-14 15:55:00,92.0,57.1,29.86,ESE,113,7.6,14.5,31,0.00,,,0.00,WUHU216HW,2013-05-14 20:55:00,
2013-05-14 16:00:00,91.6,57.5,29.86,ESE,113,5.4,14.5,32,0.00,,,0.00,WUHU216HW,2013-05-14 21:00:00,
2013-05-14 16:05:00,91.4,58.1,29.86,SSE,158,4.0,11.4,33,0.00,,,0.00,WUHU216HW,2013-05-14 21:05:00,
2013-05-14 16:10:00,91.4,58.1,29.86,WSW,248,8.5,13.4,33,0.00,,,0.00,WUHU216HW,2013-05-14 21:10:00,
2013-05-14 16:15:00,91.1,57.1,29.86,SSW,203,4.3,14.5,32,0.00,,,0.00,WUHU216HW,2013-05-14 21:15:00,
2013-05-14 16:20:00,90.9,56.1,29.86,SSW,203,9.8,14.5,31,0.00,,,0.00,WUHU216HW,2013-05-14 21:20:00,
2013-05-14 16:25:00,90.7,56.7,29.86,South,180,3.4,14.3,32,0.00,,,0.00,WUHU216HW,2013-05-14 21:25:00,
2013-05-14 16:30:00,90.5,56.6,29.85,SSW,203,8.3,14.3,32,0.00,,,0.00,WUHU216HW,2013-05-14 21:30:00,
2013-05-14 16:35:00,90.5,57.3,29.85,SE,135,3.1,12.1,33,0.00,,,0.00,WUHU216HW,2013-05-14 21:35:00,
2013-05-14 16:40:00,90.5,57.3,29.85,South,180,6.9,13.4,33,0.00,,,0.00,WUHU216HW,2013-05-14 21:40:00,
2013-05-14 16:45:00,90.7,57.5,29.85,SW,225,5.1,18.1,33,0.00,,,0.00,WUHU216HW,2013-05-14 21:45:00,
2013-05-14 16:50:00,90.5,57.3,29.84,West,270,3.4,18.1,33,0.00,,,0.00,WUHU216HW,2013-05-14 21:50:00,
2013-05-14 16:55:00,90.7,58.3,29.85,SW,225,4.3,11.9,34,0.00,,,0.00,WUHU216HW,2013-05-14 21:55:00,
2013-05-14 17:00:00,90.5,58.1,29.84,SSE,158,3.1,12.5,34,0.00,,,0.00,WUHU216HW,2013-05-14 22:00:00,
2013-05-14 17:05:00,90.4,58.0,29.84,South,180,2.5,12.5,34,0.00,,,0.00,WUHU216HW,2013-05-14 22:05:00,
2013-05-14 17:10:00,90.2,57.1,29.84,SSE,158,9.2,10.5,33,0.00,,,0.00,WUHU216HW,2013-05-14 22:10:00,
2013-05-14 17:15:00,90.2,57.9,29.84,SE,135,4.9,10.5,34,0.00,,,0.00,WUHU216HW,2013-05-14 22:15:00,
2013-05-14 17:20:00,90.2,57.9,29.84,SE,135,6.7,10.5,34,0.00,,,0.00,WUHU216HW,2013-05-14 22:20:00,
2013-05-14 17:25:00,90.0,56.9,29.84,SSE,158,6.0,10.5,33,0.00,,,0.00,WUHU216HW,2013-05-14 22:25:00,
2013-05-14 17:30:00,89.8,57.5,29.84,SSE,158,5.4,8.3,34,0.00,,,0.00,WUHU216HW,2013-05-14 22:30:00,
2013-05-14 17:35:00,89.6,57.3,29.84,SSW,203,5.4,8.5,34,0.00,,,0.00,WUHU216HW,2013-05-14 22:35:00,
2013-05-14 17:40:00,89.6,57.3,29.84,ENE,68,2.2,8.5,34,0.00,,,0.00,WUHU216HW,2013-05-14 22:40:00,
2013-05-14 17:45:00,89.6,57.3,29.84,ESE,113,4.0,8.7,34,0.00,,,0.00,WUHU216HW,2013-05-14 22:45:00,
2013-05-14 17:50:00,89.5,57.2,29.83,SE,135,8.3,8.7,34,0.00,,,0.00,WUHU216HW,2013-05-14 22:50:00,
2013-05-14 17:55:00,89.3,57.9,29.83,SSE,158,8.5,9.6,35,0.00,,,0.00,WUHU216HW,2013-05-14 22:55:00,
2013-05-14 18:00:00,88.9,57.5,29.83,East,90,2.7,10.5,35,0.00,,,0.00,WUHU216HW,2013-05-14 23:00:00,
2013-05-14 18:05:00,88.7,57.3,29.83,SSE,158,7.4,10.5,35,0.00,,,0.00,WUHU216HW,2013-05-14 23:05:00,
2013-05-14 18:10:00,88.6,57.3,29.83,ESE,113,7.6,10.5,35,0.00,,,0.00,WUHU216HW,2013-05-14 23:10:00,
2013-05-14 18:15:00,88.4,57.9,29.83,SE,135,2.0,9.2,36,0.00,,,0.00,WUHU216HW,2013-05-14 23:15:00,
2013-05-14 18:20:00,88.4,57.9,29.82,SW,225,5.1,9.2,36,0.00,,,0.00,WUHU216HW,2013-05-14 23:20:00,
2013-05-14 18:25:00,88.2,57.7,29.82,South,180,11.2,11.2,36,0.00,,,0.00,WUHU216HW,2013-05-14 23:25:00,
2013-05-14 18:30:00,88.0,56.8,29.83,SSE,158,6.3,11.2,35,0.00,,,0.00,WUHU216HW,2013-05-14 23:30:00,
2013-05-14 18:35:00,87.8,57.4,29.82,SSE,158,4.7,9.8,36,0.00,,,0.00,WUHU216HW,2013-05-14 23:35:00,
2013-05-14 18:40:00,87.7,57.2,29.82,SSW,203,6.3,8.3,36,0.00,,,0.00,WUHU216HW,2013-05-14 23:40:00,
2013-05-14 18:45:00,87.5,57.2,29.82,SW,225,6.7,8.9,36,0.00,,,0.00,WUHU216HW,2013-05-14 23:45:00,
2013-05-14 18:50:00,87.1,57.6,29.82,SSE,158,5.8,8.9,37,0.00,,,0.00,WUHU216HW,2013-05-14 23:50:00,
2013-05-14 18:55:00,86.9,57.4,29.82,SSE,158,6.0,8.9,37,0.00,,,0.00,WUHU216HW,2013-05-14 23:55:00,
2013-05-14 19:00:00,86.8,55.7,29.82,SW,225,9.4,9.4,35,0.00,,,0.00,WUHU216HW,2013-05-15 00:00:00,
2013-05-14 19:05:00,86.4,55.4,29.82,SSE,158,6.5,9.4,35,0.00,,,0.00,WUHU216HW,2013-05-15 00:05:00,
2013-05-14 19:10:00,86.2,55.3,29.82,South,180,8.7,10.5,35,0.00,,,0.00,WUHU216HW,2013-05-15 00:10:00,
2013-05-14 19:15:00,85.9,54.1,29.82,SW,225,7.4,10.5,34,0.00,,,0.00,WUHU216HW,2013-05-15 00:15:00,
2013-05-14 19:20:00,85.7,54.0,29.82,SSE,158,4.5,10.1,34,0.00,,,0.00,WUHU216HW,2013-05-15 00:20:00,
2013-05-14 19:25:00,85.3,52.8,29.82,West,270,5.4,8.7,33,0.00,,,0.00,WUHU216HW,2013-05-15 00:25:00,
2013-05-14 19:30:00,85.1,52.7,29.82,SSE,158,4.0,7.6,33,0.00,,,0.00,WUHU216HW,2013-05-15 00:30:00,
2013-05-14 19:35:00,85.0,53.3,29.82,SE,135,8.3,9.6,34,0.00,,,0.00,WUHU216HW,2013-05-15 00:35:00,
2013-05-14 19:40:00,84.6,53.0,29.82,SE,135,9.2,9.6,34,0.00,,,0.00,WUHU216HW,2013-05-15 00:40:00,
2013-05-14 19:45:00,84.2,52.7,29.82,South,180,3.8,9.2,34,0.00,,,0.00,WUHU216HW,2013-05-15 00:45:00,
2013-05-14 19:50:00,84.1,52.5,29.82,SSE,158,1.8,9.2,34,0.00,,,0.00,WUHU216HW,2013-05-15 00:50:00,
2013-05-14 19:55:00,83.7,52.2,29.82,South,180,4.7,6.7,34,0.00,,,0.00,WUHU216HW,2013-05-15 00:55:00,
2013-05-14 20:00:00,83.3,51.8,29.82,SE,135,3.8,6.7,34,0.00,,,0.00,WUHU216HW,2013-05-15 01:00:00,
2013-05-14 20:05:00,83.2,52.5,29.82,SW,225,2.5,5.6,35,0.00,,,0.00,WUHU216HW,2013-05-15 01:05:00,
2013-05-14 20:10:00,82.8,52.2,29.82,SSE,158,5.4,5.6,35,0.00,,,0.00,WUHU216HW,2013-05-15 01:10:00,
2013-05-14 20:15:00,82.4,51.8,29.82,SSE,158,3.4,5.4,35,0.00,,,0.00,WUHU216HW,2013-05-15 01:15:00,
2013-05-14 20:20:00,82.1,51.6,29.82,SSE,158,1.6,5.4,35,0.00,,,0.00,WUHU216HW,2013-05-15 01:20:00,
2013-05-14 20:25:00,81.7,52.0,29.82,SSE,158,3.4,6.3,36,0.00,,,0.00,WUHU216HW,2013-05-15 01:25:00,
2013-05-14 20:30:00,81.4,52.5,29.82,SE,135,4.9,6.3,37,0.00,,,0.00,WUHU216HW,2013-05-15 01:30:00,
2013-05-14 20:35:00,81.2,52.3,29.82,South,180,2.5,6.3,37,0.00,,,0.00,WUHU216HW,2013-05-15 01:35:00,
2013-05-14 20:40:00,81.0,52.2,29.82,South,180,3.4,5.6,37,0.00,,,0.00,WUHU216HW,2013-05-15 01:40:00,
2013-05-14 20:45:00,80.6,52.7,29.82,SSE,158,4.7,5.1,38,0.00,,,0.00,WUHU216HW,2013-05-15 01:45:00,
2013-05-14 20:50:00,80.5,52.5,29.83,South,180,3.1,6.9,38,0.00,,,0.00,WUHU216HW,2013-05-15 01:50:00,
2013-05-14 20:55:00,80.3,53.1,29.83,SE,135,2.2,6.9,39,0.00,,,0.00,WUHU216HW,2013-05-15 01:55:00,
2013-05-14 21:00:00,79.9,52.7,29.83,SE,135,3.4,6.9,39,0.00,,,0.00,WUHU216HW,2013-05-15 02:00:00,
2013-05-14 21:05:00,79.7,52.6,29.83,SSE,158,6.7,8.5,39,0.00,,,0.00,WUHU216HW,2013-05-15 02:05:00,
2013-05-14 21:10:00,79.7,53.4,29.83,SSE,158,4.0,8.5,40,0.00,,,0.00,WUHU216HW,2013-05-15 02:10:00,
2013-05-14 21:15:00,79.6,53.2,29.83,SW,225,2.0,8.3,40,0.00,,,0.00,WUHU216HW,2013-05-15 02:15:00,
2013-05-14 21:20:00,79.4,53.0,29.83,SE,135,5.4,7.2,40,0.00,,,0.00,WUHU216HW,2013-05-15 02:20:00,
2013-05-14 21:25:00,79.2,53.5,29.83,SSE,158,4.7,7.2,41,0.00,,,0.00,WUHU216HW,2013-05-15 02:25:00,
2013-05-14 21:30:00,79.0,53.9,29.83,South,180,4.0,8.7,42,0.00,,,0.00,WUHU216HW,2013-05-15 02:30:00,
2013-05-14 21:35:00,78.8,53.8,29.84,ESE,113,5.4,11.4,42,0.00,,,0.00,WUHU216HW,2013-05-15 02:35:00,
2013-05-14 21:40:00,78.8,54.4,29.84,SSW,203,7.2,11.4,43,0.00,,,0.00,WUHU216HW,2013-05-15 02:40:00,
2013-05-14 21:45:00,78.7,54.3,29.84,SSE,158,4.9,10.5,43,0.00,,,0.00,WUHU216HW,2013-05-15 02:45:00,
2013-05-14 21:50:00,78.5,54.1,29.84,SE,135,3.4,6.9,43,0.00,,,0.00,WUHU216HW,2013-05-15 02:50:00,
2013-05-14 21:55:00,78.3,54.6,29.85,South,180,4.5,8.3,44,0.00,,,0.00,WUHU216HW,2013-05-15 02:55:00,
2013-05-14 22:00:00,78.1,54.4,29.85,SSE,158,9.2,9.2,44,0.00,,,0.00,WUHU216HW,2013-05-15 03:00:00,
2013-05-14 22:05:00,78.1,55.0,29.85,South,180,6.5,10.1,45,0.00,,,0.00,WUHU216HW,2013-05-15 03:05:00,
2013-05-14 22:10:00,77.8,54.6,29.85,SSW,203,6.5,10.1,45,0.00,,,0.00,WUHU216HW,2013-05-15 03:10:00,
2013-05-14 22:15:00,77.8,54.6,29.85,SE,135,5.1,7.8,45,0.00,,,0.00,WUHU216HW,2013-05-15 03:15:00,
2013-05-14 22:20:00,77.6,54.5,29.85,SSE,158,2.5,7.8,45,0.00,,,0.00,WUHU216HW,2013-05-15 03:20:00,
2013-05-14 22:25:00,77.4,54.9,29.85,South,180,4.0,7.6,46,0.00,,,0.00,WUHU216HW,2013-05-15 03:25:00,
2013-05-14 22:30:00,77.4,54.9,29.86,South,180,3.8,7.6,46,0.00,,,0.00,WUHU216HW,2013-05-15 03:30:00,
2013-05-14 22:35:00,77.2,54.8,29.86,SSE,158,8.5,9.6,46,0.00,,,0.00,WUHU216HW,2013-05-15 03:35:00,
2013-05-14 22:40:00,77.0,54.6,29.86,ESE,113,4.3,9.6,46,0.00,,,0.00,WUHU216HW,2013-05-15 03:40:00,
2013-05-14 22:45:00,76.9,55.1,29.86,SSE,158,4.5,9.6,47,0.00,,,0.00,WUHU216HW,2013-05-15 03:45:00,
2013-05-14 22:50:00,76.7,54.9,29.86,South,180,5.4,9.6,47,0.00,,,0.00,WUHU216HW,2013-05-15 03:50:00,
2013-05-14 22:55:00,76.5,55.4,29.86,SSE,158,7.2,10.1,48,0.00,,,0.00,WUHU216HW,2013-05-15 03:55:00,
2013-05-14 23:00:00,76.3,55.2,29.86,SSE,158,2.5,10.1,48,0.00,,,0.00,WUHU216HW,2013-05-15 04:00:00,
2013-05-14 23:01:00,76.3,55.2,29.86,South,180,4.7,10.1,48,0.00,,,0.00,WUHU216HW,2013-05-15 04:01:00,
2013-05-14 23:06:00,76.3,55.2,29.86,SSE,158,5.4,8.1,48,0.00,,,0.00,WUHU216HW,2013-05-15 04:06:00,
2013-05-14 23:11:00,76.1,55.6,29.87,SE,135,4.9,7.4,49,0.00,,,0.00,WUHU216HW,2013-05-15 04:11:00,
2013-05-14 23:16:00,76.0,55.4,29.87,SSW,203,5.1,6.9,49,0.00,,,0.00,WUHU216HW,2013-05-15 04:16:00,
2013-05-14 23:21:00,75.8,55.4,29.87,SE,135,5.8,8.5,49,0.00,,,0.00,WUHU216HW,2013-05-15 04:21:00,
2013-05-14 23:26:00,75.6,55.8,29.87,SE,135,4.5,8.5,50,0.00,,,0.00,WUHU216HW,2013-05-15 04:26:00,